sensor_id;sensor_type;location;lat;lon;timestamp;temperature;humidity
37702;DHT22;23548;51.196;6.838;2022-12-07T00:01:23;5.40;99.90
37702;DHT22;23548;51.196;6.838;2022-12-07T00:03:52;5.40;99.90
37702;DHT22;23548;51.196;6.838;2022-12-07T00:06:18;5.40;99.90
37702;DHT22;23548;51.196;6.838;2022-12-07T00:08:45;5.40;99.90
37702;DHT22;23548;51.196;6.838;2022-12-07T00:11:16;5.30;99.90
37702;DHT22;23548;51.196;6.838;2022-12-07T00:13:42;5.30;99.90
37702;DHT22;23548;51.196;6.838;2022-12-07T00:16:11;5.20;99.90
37702;DHT22;23548;51.196;6.838;2022-12-07T00:18:37;5.40;99.90
37702;DHT22;23548;51.196;6.838;2022-12-07T00:21:24;5.40;99.90
37702;DHT22;23548;51.196;6.838;2022-12-07T00:23:51;5.40;99.90
37702;DHT22;23548;51.196;6.838;2022-12-07T00:26:22;5.40;99.90
37702;DHT22;23548;51.196;6.838;2022-12-07T00:28:54;5.40;99.90
37702;DHT22;23548;51.196;6.838;2022-12-07T00:31:22;5.40;99.90
37702;DHT22;23548;51.196;6.838;2022-12-07T00:33:48;5.50;99.90
37702;DHT22;23548;51.196;6.838;2022-12-07T00:36:16;5.50;99.90
37702;DHT22;23548;51.196;6.838;2022-12-07T00:38:42;5.60;99.90
37702;DHT22;23548;51.196;6.838;2022-12-07T00:41:17;5.60;99.90
37702;DHT22;23548;51.196;6.838;2022-12-07T00:43:44;5.70;99.90
37702;DHT22;23548;51.196;6.838;2022-12-07T00:46:11;5.60;99.90
37702;DHT22;23548;51.196;6.838;2022-12-07T00:48:37;5.60;99.90
37702;DHT22;23548;51.196;6.838;2022-12-07T00:51:03;5.60;99.90
37702;DHT22;23548;51.196;6.838;2022-12-07T00:53:29;5.50;99.90
37702;DHT22;23548;51.196;6.838;2022-12-07T00:55:55;5.60;99.90
37702;DHT22;23548;51.196;6.838;2022-12-07T00:58:22;5.50;99.90
37702;DHT22;23548;51.196;6.838;2022-12-07T01:00:48;5.50;99.90
37702;DHT22;23548;51.196;6.838;2022-12-07T01:03:15;5.50;99.90
37702;DHT22;23548;51.196;6.838;2022-12-07T01:05:52;5.50;99.90
37702;DHT22;23548;51.196;6.838;2022-12-07T01:08:18;5.50;99.90
37702;DHT22;23548;51.196;6.838;2022-12-07T01:10:43;5.40;99.90
37702;DHT22;23548;51.196;6.838;2022-12-07T01:13:09;5.50;99.90
37702;DHT22;23548;51.196;6.838;2022-12-07T01:15:42;5.50;99.90
37702;DHT22;23548;51.196;6.838;2022-12-07T01:18:08;5.50;99.90
37702;DHT22;23548;51.196;6.838;2022-12-07T01:20:34;5.60;99.90
37702;DHT22;23548;51.196;6.838;2022-12-07T01:23:00;5.60;99.90
37702;DHT22;23548;51.196;6.838;2022-12-07T01:25:26;5.60;99.90
37702;DHT22;23548;51.196;6.838;2022-12-07T01:27:52;5.60;99.90
37702;DHT22;23548;51.196;6.838;2022-12-07T01:30:17;5.60;99.90
37702;DHT22;23548;51.196;6.838;2022-12-07T01:32:43;5.60;99.90
37702;DHT22;23548;51.196;6.838;2022-12-07T01:35:09;5.70;99.90
37702;DHT22;23548;51.196;6.838;2022-12-07T01:37:36;5.70;99.90
37702;DHT22;23548;51.196;6.838;2022-12-07T01:40:06;5.70;99.90
37702;DHT22;23548;51.196;6.838;2022-12-07T01:42:32;5.60;99.90
37702;DHT22;23548;51.196;6.838;2022-12-07T01:47:48;5.60;99.90
37702;DHT22;23548;51.196;6.838;2022-12-07T01:50:15;5.60;99.90
37702;DHT22;23548;51.196;6.838;2022-12-07T01:52:42;5.50;99.90
37702;DHT22;23548;51.196;6.838;2022-12-07T01:55:12;5.50;99.90
37702;DHT22;23548;51.196;6.838;2022-12-07T01:57:41;5.50;99.90
37702;DHT22;23548;51.196;6.838;2022-12-07T02:00:09;5.50;99.90
37702;DHT22;23548;51.196;6.838;2022-12-07T02:02:40;5.50;99.90
37702;DHT22;23548;51.196;6.838;2022-12-07T02:05:07;5.60;99.90
37702;DHT22;23548;51.196;6.838;2022-12-07T02:07:36;5.70;99.90
37702;DHT22;23548;51.196;6.838;2022-12-07T02:10:22;5.70;99.90
37702;DHT22;23548;51.196;6.838;2022-12-07T02:13:04;5.70;99.90
37702;DHT22;23548;51.196;6.838;2022-12-07T02:21:39;5.60;99.90
37702;DHT22;23548;51.196;6.838;2022-12-07T02:30:02;5.50;99.90
37702;DHT22;23548;51.196;6.838;2022-12-07T02:35:22;5.50;99.90
37702;DHT22;23548;51.196;6.838;2022-12-07T02:40:48;5.50;99.90
37702;DHT22;23548;51.196;6.838;2022-12-07T02:45:44;5.60;99.90
37702;DHT22;23548;51.196;6.838;2022-12-07T02:48:14;5.60;99.90
37702;DHT22;23548;51.196;6.838;2022-12-07T02:50:49;5.60;99.90
37702;DHT22;23548;51.196;6.838;2022-12-07T02:56:07;5.50;99.90
37702;DHT22;23548;51.196;6.838;2022-12-07T03:05:37;5.60;99.90
37702;DHT22;23548;51.196;6.838;2022-12-07T03:13:41;5.70;99.90
37702;DHT22;23548;51.196;6.838;2022-12-07T03:16:34;5.70;99.90
37702;DHT22;23548;51.196;6.838;2022-12-07T03:19:06;5.70;99.90
37702;DHT22;23548;51.196;6.838;2022-12-07T03:21:39;5.70;99.90
37702;DHT22;23548;51.196;6.838;2022-12-07T03:24:13;5.70;99.90
37702;DHT22;23548;51.196;6.838;2022-12-07T03:29:28;5.60;99.90
37702;DHT22;23548;51.196;6.838;2022-12-07T03:32:01;5.70;99.90
37702;DHT22;23548;51.196;6.838;2022-12-07T03:34:35;5.70;99.90
37702;DHT22;23548;51.196;6.838;2022-12-07T03:37:18;5.70;99.90
37702;DHT22;23548;51.196;6.838;2022-12-07T03:39:53;5.60;99.90
37702;DHT22;23548;51.196;6.838;2022-12-07T03:42:23;5.60;99.90
37702;DHT22;23548;51.196;6.838;2022-12-07T03:44:49;5.70;99.90
37702;DHT22;23548;51.196;6.838;2022-12-07T03:47:26;5.70;99.90
37702;DHT22;23548;51.196;6.838;2022-12-07T03:52:41;5.70;99.90
37702;DHT22;23548;51.196;6.838;2022-12-07T03:55:15;5.60;99.90
37702;DHT22;23548;51.196;6.838;2022-12-07T03:57:44;5.70;99.90
37702;DHT22;23548;51.196;6.838;2022-12-07T04:00:12;5.70;99.90
37702;DHT22;23548;51.196;6.838;2022-12-07T04:02:39;5.60;99.90
37702;DHT22;23548;51.196;6.838;2022-12-07T04:05:06;5.60;99.90
37702;DHT22;23548;51.196;6.838;2022-12-07T04:07:32;5.50;99.90
37702;DHT22;23548;51.196;6.838;2022-12-07T04:09:58;5.50;99.90
37702;DHT22;23548;51.196;6.838;2022-12-07T04:12:24;5.40;99.90
37702;DHT22;23548;51.196;6.838;2022-12-07T04:14:50;5.40;99.90
37702;DHT22;23548;51.196;6.838;2022-12-07T04:17:15;5.40;99.90
37702;DHT22;23548;51.196;6.838;2022-12-07T04:19:41;5.50;99.90
37702;DHT22;23548;51.196;6.838;2022-12-07T04:22:07;5.50;99.90
37702;DHT22;23548;51.196;6.838;2022-12-07T04:24:34;5.50;99.90
37702;DHT22;23548;51.196;6.838;2022-12-07T04:27:00;5.50;99.90
37702;DHT22;23548;51.196;6.838;2022-12-07T04:29:26;5.50;99.90
37702;DHT22;23548;51.196;6.838;2022-12-07T04:31:52;5.50;99.90
37702;DHT22;23548;51.196;6.838;2022-12-07T04:34:18;5.40;99.90
37702;DHT22;23548;51.196;6.838;2022-12-07T04:36:45;5.40;99.90
37702;DHT22;23548;51.196;6.838;2022-12-07T04:39:20;5.40;99.90
37702;DHT22;23548;51.196;6.838;2022-12-07T04:41:46;5.40;99.90
37702;DHT22;23548;51.196;6.838;2022-12-07T04:44:13;5.50;99.90
37702;DHT22;23548;51.196;6.838;2022-12-07T04:46:40;5.40;99.90
37702;DHT22;23548;51.196;6.838;2022-12-07T04:49:06;5.40;99.90
37702;DHT22;23548;51.196;6.838;2022-12-07T04:51:32;5.50;99.90
37702;DHT22;23548;51.196;6.838;2022-12-07T04:53:58;5.50;99.90
37702;DHT22;23548;51.196;6.838;2022-12-07T04:56:24;5.50;99.90
37702;DHT22;23548;51.196;6.838;2022-12-07T04:58:52;5.40;99.90
37702;DHT22;23548;51.196;6.838;2022-12-07T05:01:18;5.40;99.90
37702;DHT22;23548;51.196;6.838;2022-12-07T05:06:53;5.30;99.90
37702;DHT22;23548;51.196;6.838;2022-12-07T05:09:19;5.20;99.90
37702;DHT22;23548;51.196;6.838;2022-12-07T05:11:45;5.20;99.90
37702;DHT22;23548;51.196;6.838;2022-12-07T05:14:15;5.10;99.90
37702;DHT22;23548;51.196;6.838;2022-12-07T05:16:42;5.30;99.90
37702;DHT22;23548;51.196;6.838;2022-12-07T05:19:09;5.40;99.90
37702;DHT22;23548;51.196;6.838;2022-12-07T05:21:36;5.30;99.90
37702;DHT22;23548;51.196;6.838;2022-12-07T05:24:03;5.30;99.90
37702;DHT22;23548;51.196;6.838;2022-12-07T05:26:29;5.30;99.90
37702;DHT22;23548;51.196;6.838;2022-12-07T05:28:55;5.20;99.90
37702;DHT22;23548;51.196;6.838;2022-12-07T05:31:22;5.20;99.90
37702;DHT22;23548;51.196;6.838;2022-12-07T05:33:48;5.30;99.90
37702;DHT22;23548;51.196;6.838;2022-12-07T05:36:13;5.40;99.90
37702;DHT22;23548;51.196;6.838;2022-12-07T05:38:40;5.40;99.90
37702;DHT22;23548;51.196;6.838;2022-12-07T05:41:07;5.40;99.90
37702;DHT22;23548;51.196;6.838;2022-12-07T05:43:33;5.40;99.90
37702;DHT22;23548;51.196;6.838;2022-12-07T05:45:59;5.40;99.90
37702;DHT22;23548;51.196;6.838;2022-12-07T05:48:26;5.30;99.90
37702;DHT22;23548;51.196;6.838;2022-12-07T05:50:52;5.30;99.90
37702;DHT22;23548;51.196;6.838;2022-12-07T05:53:18;5.30;99.90
37702;DHT22;23548;51.196;6.838;2022-12-07T05:55:44;5.30;99.90
37702;DHT22;23548;51.196;6.838;2022-12-07T05:58:10;5.30;99.90
37702;DHT22;23548;51.196;6.838;2022-12-07T06:00:55;5.40;99.90
37702;DHT22;23548;51.196;6.838;2022-12-07T06:03:21;5.30;99.90
37702;DHT22;23548;51.196;6.838;2022-12-07T06:05:47;5.40;99.90
37702;DHT22;23548;51.196;6.838;2022-12-07T06:08:13;5.40;99.90
37702;DHT22;23548;51.196;6.838;2022-12-07T06:10:40;5.40;99.90
37702;DHT22;23548;51.196;6.838;2022-12-07T06:13:07;5.40;99.90
37702;DHT22;23548;51.196;6.838;2022-12-07T06:15:36;5.50;99.90
37702;DHT22;23548;51.196;6.838;2022-12-07T06:18:02;5.50;99.90
37702;DHT22;23548;51.196;6.838;2022-12-07T06:20:28;5.50;99.90
37702;DHT22;23548;51.196;6.838;2022-12-07T06:22:54;5.40;99.90
37702;DHT22;23548;51.196;6.838;2022-12-07T06:25:20;5.40;99.90
37702;DHT22;23548;51.196;6.838;2022-12-07T06:27:45;5.30;99.90
37702;DHT22;23548;51.196;6.838;2022-12-07T06:30:11;5.20;99.90
37702;DHT22;23548;51.196;6.838;2022-12-07T06:32:37;5.10;99.90
37702;DHT22;23548;51.196;6.838;2022-12-07T06:35:04;5.10;99.90
37702;DHT22;23548;51.196;6.838;2022-12-07T06:37:29;5.20;99.90
37702;DHT22;23548;51.196;6.838;2022-12-07T06:39:56;5.30;99.90
37702;DHT22;23548;51.196;6.838;2022-12-07T06:42:22;5.40;99.90
37702;DHT22;23548;51.196;6.838;2022-12-07T06:44:47;5.40;99.90
37702;DHT22;23548;51.196;6.838;2022-12-07T06:47:13;5.30;99.90
37702;DHT22;23548;51.196;6.838;2022-12-07T06:49:39;5.30;99.90
37702;DHT22;23548;51.196;6.838;2022-12-07T06:52:05;5.20;99.90
37702;DHT22;23548;51.196;6.838;2022-12-07T06:54:31;5.30;99.90
37702;DHT22;23548;51.196;6.838;2022-12-07T06:56:57;5.20;99.90
37702;DHT22;23548;51.196;6.838;2022-12-07T06:59:22;5.30;99.90
37702;DHT22;23548;51.196;6.838;2022-12-07T07:01:48;5.30;99.90
37702;DHT22;23548;51.196;6.838;2022-12-07T07:04:14;5.20;99.90
37702;DHT22;23548;51.196;6.838;2022-12-07T07:06:40;5.20;99.90
37702;DHT22;23548;51.196;6.838;2022-12-07T07:09:05;5.20;99.90
37702;DHT22;23548;51.196;6.838;2022-12-07T07:11:31;5.20;99.90
37702;DHT22;23548;51.196;6.838;2022-12-07T07:13:57;5.10;99.90
37702;DHT22;23548;51.196;6.838;2022-12-07T07:16:28;5.20;99.90
37702;DHT22;23548;51.196;6.838;2022-12-07T07:18:55;5.20;99.90
37702;DHT22;23548;51.196;6.838;2022-12-07T07:21:20;5.20;99.90
37702;DHT22;23548;51.196;6.838;2022-12-07T07:23:46;5.20;99.90
37702;DHT22;23548;51.196;6.838;2022-12-07T07:26:11;5.20;99.90
37702;DHT22;23548;51.196;6.838;2022-12-07T07:28:37;5.20;99.90
37702;DHT22;23548;51.196;6.838;2022-12-07T07:31:03;5.10;99.90
37702;DHT22;23548;51.196;6.838;2022-12-07T07:33:29;5.00;99.90
37702;DHT22;23548;51.196;6.838;2022-12-07T07:35:54;4.90;99.90
37702;DHT22;23548;51.196;6.838;2022-12-07T07:38:23;5.00;99.90
37702;DHT22;23548;51.196;6.838;2022-12-07T07:40:49;5.00;99.90
37702;DHT22;23548;51.196;6.838;2022-12-07T07:43:15;5.10;99.90
37702;DHT22;23548;51.196;6.838;2022-12-07T07:45:41;5.10;99.90
37702;DHT22;23548;51.196;6.838;2022-12-07T07:48:06;5.20;99.90
37702;DHT22;23548;51.196;6.838;2022-12-07T07:50:32;5.20;99.90
37702;DHT22;23548;51.196;6.838;2022-12-07T07:52:58;5.20;99.90
37702;DHT22;23548;51.196;6.838;2022-12-07T07:55:23;5.10;99.90
37702;DHT22;23548;51.196;6.838;2022-12-07T07:57:49;5.10;99.90
37702;DHT22;23548;51.196;6.838;2022-12-07T08:00:16;5.00;99.90
37702;DHT22;23548;51.196;6.838;2022-12-07T08:02:43;4.90;99.90
37702;DHT22;23548;51.196;6.838;2022-12-07T08:05:10;4.80;99.90
37702;DHT22;23548;51.196;6.838;2022-12-07T08:07:35;4.80;99.90
37702;DHT22;23548;51.196;6.838;2022-12-07T08:10:02;4.70;99.90
37702;DHT22;23548;51.196;6.838;2022-12-07T08:12:27;4.70;99.90
37702;DHT22;23548;51.196;6.838;2022-12-07T08:14:53;4.70;99.90
37702;DHT22;23548;51.196;6.838;2022-12-07T08:17:19;4.70;99.90
37702;DHT22;23548;51.196;6.838;2022-12-07T08:19:44;4.70;99.90
37702;DHT22;23548;51.196;6.838;2022-12-07T08:22:10;4.80;99.90
37702;DHT22;23548;51.196;6.838;2022-12-07T08:24:36;4.80;99.90
37702;DHT22;23548;51.196;6.838;2022-12-07T08:27:02;4.90;99.90
37702;DHT22;23548;51.196;6.838;2022-12-07T08:29:28;5.10;99.90
37702;DHT22;23548;51.196;6.838;2022-12-07T08:31:54;5.20;99.90
37702;DHT22;23548;51.196;6.838;2022-12-07T08:34:19;5.30;99.90
37702;DHT22;23548;51.196;6.838;2022-12-07T08:36:45;5.50;99.90
37702;DHT22;23548;51.196;6.838;2022-12-07T08:39:11;5.60;99.90
37702;DHT22;23548;51.196;6.838;2022-12-07T08:41:37;5.60;99.90
37702;DHT22;23548;51.196;6.838;2022-12-07T08:44:03;5.70;99.90
37702;DHT22;23548;51.196;6.838;2022-12-07T08:46:36;5.60;99.90
37702;DHT22;23548;51.196;6.838;2022-12-07T08:49:23;5.50;99.90
37702;DHT22;23548;51.196;6.838;2022-12-07T08:51:50;5.50;99.90
37702;DHT22;23548;51.196;6.838;2022-12-07T08:54:17;5.50;99.90
37702;DHT22;23548;51.196;6.838;2022-12-07T08:56:44;5.50;99.90
37702;DHT22;23548;51.196;6.838;2022-12-07T08:59:15;5.40;99.90
37702;DHT22;23548;51.196;6.838;2022-12-07T09:01:41;5.50;99.90
37702;DHT22;23548;51.196;6.838;2022-12-07T09:04:07;5.50;99.90
37702;DHT22;23548;51.196;6.838;2022-12-07T09:06:33;5.50;99.90
37702;DHT22;23548;51.196;6.838;2022-12-07T09:09:01;5.50;99.90
37702;DHT22;23548;51.196;6.838;2022-12-07T09:11:27;5.30;99.90
37702;DHT22;23548;51.196;6.838;2022-12-07T09:13:53;5.30;99.90
37702;DHT22;23548;51.196;6.838;2022-12-07T09:16:19;5.20;99.90
37702;DHT22;23548;51.196;6.838;2022-12-07T09:18:44;5.20;99.90
37702;DHT22;23548;51.196;6.838;2022-12-07T09:21:10;5.20;99.90
37702;DHT22;23548;51.196;6.838;2022-12-07T09:23:36;5.30;99.90
37702;DHT22;23548;51.196;6.838;2022-12-07T09:26:03;5.40;99.90
37702;DHT22;23548;51.196;6.838;2022-12-07T09:28:30;5.70;99.90
37702;DHT22;23548;51.196;6.838;2022-12-07T09:30:56;5.80;99.90
37702;DHT22;23548;51.196;6.838;2022-12-07T09:33:21;6.00;99.90
37702;DHT22;23548;51.196;6.838;2022-12-07T09:35:49;6.10;99.90
37702;DHT22;23548;51.196;6.838;2022-12-07T09:38:15;6.30;99.90
37702;DHT22;23548;51.196;6.838;2022-12-07T09:40:42;6.30;99.90
37702;DHT22;23548;51.196;6.838;2022-12-07T09:43:17;6.20;99.90
37702;DHT22;23548;51.196;6.838;2022-12-07T09:45:44;6.30;99.90
37702;DHT22;23548;51.196;6.838;2022-12-07T09:48:33;6.30;99.90
37702;DHT22;23548;51.196;6.838;2022-12-07T09:51:00;6.20;99.90
37702;DHT22;23548;51.196;6.838;2022-12-07T09:53:37;6.30;99.90
37702;DHT22;23548;51.196;6.838;2022-12-07T09:56:04;6.40;99.90
37702;DHT22;23548;51.196;6.838;2022-12-07T09:58:31;6.40;99.90
37702;DHT22;23548;51.196;6.838;2022-12-07T10:03:34;6.40;99.90
37702;DHT22;23548;51.196;6.838;2022-12-07T10:06:01;6.60;99.90
37702;DHT22;23548;51.196;6.838;2022-12-07T10:08:27;6.60;99.90
37702;DHT22;23548;51.196;6.838;2022-12-07T10:10:54;6.80;99.90
37702;DHT22;23548;51.196;6.838;2022-12-07T10:13:41;6.80;99.90
37702;DHT22;23548;51.196;6.838;2022-12-07T10:16:40;6.90;99.90
37702;DHT22;23548;51.196;6.838;2022-12-07T10:22:14;7.30;99.90
37702;DHT22;23548;51.196;6.838;2022-12-07T10:24:41;7.10;99.90
37702;DHT22;23548;51.196;6.838;2022-12-07T10:27:37;7.20;99.90
37702;DHT22;23548;51.196;6.838;2022-12-07T10:30:07;7.20;99.90
37702;DHT22;23548;51.196;6.838;2022-12-07T10:32:36;7.20;99.90
37702;DHT22;23548;51.196;6.838;2022-12-07T10:37:48;7.10;99.90
37702;DHT22;23548;51.196;6.838;2022-12-07T10:40:33;7.00;99.90
37702;DHT22;23548;51.196;6.838;2022-12-07T10:43:05;7.10;99.90
37702;DHT22;23548;51.196;6.838;2022-12-07T10:45:32;7.10;99.90
37702;DHT22;23548;51.196;6.838;2022-12-07T10:53:26;7.20;99.90
37702;DHT22;23548;51.196;6.838;2022-12-07T11:01:33;7.10;99.90
37702;DHT22;23548;51.196;6.838;2022-12-07T11:07:10;7.30;99.90
37702;DHT22;23548;51.196;6.838;2022-12-07T11:10:02;7.30;99.90
37702;DHT22;23548;51.196;6.838;2022-12-07T11:13:03;7.50;99.90
37702;DHT22;23548;51.196;6.838;2022-12-07T11:15:55;7.70;99.90
37702;DHT22;23548;51.196;6.838;2022-12-07T11:24:18;7.80;99.90
37702;DHT22;23548;51.196;6.838;2022-12-07T11:29:48;7.60;99.90
37702;DHT22;23548;51.196;6.838;2022-12-07T11:32:25;7.30;99.90
37702;DHT22;23548;51.196;6.838;2022-12-07T11:35:07;7.40;99.90
37702;DHT22;23548;51.196;6.838;2022-12-07T11:37:35;7.50;99.90
37702;DHT22;23548;51.196;6.838;2022-12-07T11:40:26;7.50;99.90
37702;DHT22;23548;51.196;6.838;2022-12-07T11:45:41;7.70;99.90
37702;DHT22;23548;51.196;6.838;2022-12-07T11:48:11;7.80;99.90
37702;DHT22;23548;51.196;6.838;2022-12-07T11:50:52;7.90;99.90
37702;DHT22;23548;51.196;6.838;2022-12-07T11:56:19;8.40;99.90
37702;DHT22;23548;51.196;6.838;2022-12-07T12:04:06;8.40;99.90
37702;DHT22;23548;51.196;6.838;2022-12-07T12:06:41;8.50;99.90
37702;DHT22;23548;51.196;6.838;2022-12-07T12:09:14;8.60;99.90
37702;DHT22;23548;51.196;6.838;2022-12-07T12:22:40;8.40;99.90
37702;DHT22;23548;51.196;6.838;2022-12-07T12:25:21;8.40;99.90
37702;DHT22;23548;51.196;6.838;2022-12-07T12:27:48;8.50;99.90
37702;DHT22;23548;51.196;6.838;2022-12-07T12:30:38;8.50;99.90
37702;DHT22;23548;51.196;6.838;2022-12-07T12:33:27;8.60;99.90
37702;DHT22;23548;51.196;6.838;2022-12-07T12:39:08;8.60;99.90
37702;DHT22;23548;51.196;6.838;2022-12-07T12:46:59;8.70;99.90
37702;DHT22;23548;51.196;6.838;2022-12-07T12:57:35;8.60;99.90
37702;DHT22;23548;51.196;6.838;2022-12-07T13:00:21;8.30;99.90
37702;DHT22;23548;51.196;6.838;2022-12-07T13:02:54;8.00;99.90
37702;DHT22;23548;51.196;6.838;2022-12-07T13:05:31;8.00;99.90
37702;DHT22;23548;51.196;6.838;2022-12-07T13:13:25;7.70;99.90
37702;DHT22;23548;51.196;6.838;2022-12-07T13:15:52;7.90;99.90
37702;DHT22;23548;51.196;6.838;2022-12-07T13:23:36;7.80;99.90
37702;DHT22;23548;51.196;6.838;2022-12-07T13:29:13;7.70;99.90
37702;DHT22;23548;51.196;6.838;2022-12-07T13:34:30;7.70;99.90
37702;DHT22;23548;51.196;6.838;2022-12-07T13:36:56;7.70;99.90
37702;DHT22;23548;51.196;6.838;2022-12-07T13:39:26;7.60;99.90
37702;DHT22;23548;51.196;6.838;2022-12-07T13:41:55;7.50;99.90
37702;DHT22;23548;51.196;6.838;2022-12-07T13:44:23;7.50;99.90
37702;DHT22;23548;51.196;6.838;2022-12-07T13:49:38;7.40;99.90
37702;DHT22;23548;51.196;6.838;2022-12-07T13:57:21;7.50;99.90
37702;DHT22;23548;51.196;6.838;2022-12-07T13:59:47;7.50;99.90
37702;DHT22;23548;51.196;6.838;2022-12-07T14:02:27;7.60;99.90
37702;DHT22;23548;51.196;6.838;2022-12-07T14:05:13;7.80;99.90
37702;DHT22;23548;51.196;6.838;2022-12-07T14:10:54;8.00;99.90
37702;DHT22;23548;51.196;6.838;2022-12-07T14:13:35;7.90;99.90
37702;DHT22;23548;51.196;6.838;2022-12-07T14:16:54;7.70;99.90
37702;DHT22;23548;51.196;6.838;2022-12-07T14:18:53;7.60;99.90
37702;DHT22;23548;51.196;6.838;2022-12-07T14:21:22;7.50;99.90
37702;DHT22;23548;51.196;6.838;2022-12-07T14:26:32;7.60;99.90
37702;DHT22;23548;51.196;6.838;2022-12-07T14:31:52;7.60;99.90
37702;DHT22;23548;51.196;6.838;2022-12-07T14:34:23;7.50;99.90
37702;DHT22;23548;51.196;6.838;2022-12-07T14:36:49;7.50;99.90
37702;DHT22;23548;51.196;6.838;2022-12-07T14:39:15;7.40;99.90
37702;DHT22;23548;51.196;6.838;2022-12-07T14:41:41;7.30;99.90
37702;DHT22;23548;51.196;6.838;2022-12-07T14:44:16;7.30;99.90
37702;DHT22;23548;51.196;6.838;2022-12-07T14:46:42;7.20;99.90
37702;DHT22;23548;51.196;6.838;2022-12-07T14:49:08;7.20;99.90
37702;DHT22;23548;51.196;6.838;2022-12-07T14:51:36;7.10;99.90
37702;DHT22;23548;51.196;6.838;2022-12-07T14:54:06;7.00;99.90
37702;DHT22;23548;51.196;6.838;2022-12-07T14:56:32;6.90;99.90
37702;DHT22;23548;51.196;6.838;2022-12-07T14:58:57;6.80;99.90
37702;DHT22;23548;51.196;6.838;2022-12-07T15:01:23;6.70;99.90
37702;DHT22;23548;51.196;6.838;2022-12-07T15:03:49;6.60;99.90
37702;DHT22;23548;51.196;6.838;2022-12-07T15:06:17;6.50;99.90
37702;DHT22;23548;51.196;6.838;2022-12-07T15:08:42;6.50;99.90
37702;DHT22;23548;51.196;6.838;2022-12-07T15:11:17;6.50;99.90
37702;DHT22;23548;51.196;6.838;2022-12-07T15:13:43;6.40;99.90
37702;DHT22;23548;51.196;6.838;2022-12-07T15:16:27;6.40;99.90
37702;DHT22;23548;51.196;6.838;2022-12-07T15:18:53;6.40;99.90
37702;DHT22;23548;51.196;6.838;2022-12-07T15:21:18;6.40;99.90
37702;DHT22;23548;51.196;6.838;2022-12-07T15:23:46;6.40;99.90
37702;DHT22;23548;51.196;6.838;2022-12-07T15:26:12;6.40;99.90
37702;DHT22;23548;51.196;6.838;2022-12-07T15:28:39;6.40;99.90
37702;DHT22;23548;51.196;6.838;2022-12-07T15:31:14;6.40;99.90
37702;DHT22;23548;51.196;6.838;2022-12-07T15:33:40;6.40;99.90
37702;DHT22;23548;51.196;6.838;2022-12-07T15:36:09;6.40;99.90
37702;DHT22;23548;51.196;6.838;2022-12-07T15:38:40;6.40;99.90
37702;DHT22;23548;51.196;6.838;2022-12-07T15:41:06;6.30;99.90
37702;DHT22;23548;51.196;6.838;2022-12-07T15:43:32;6.30;99.90
37702;DHT22;23548;51.196;6.838;2022-12-07T15:46:21;6.20;99.90
37702;DHT22;23548;51.196;6.838;2022-12-07T15:48:47;6.20;99.90
37702;DHT22;23548;51.196;6.838;2022-12-07T15:51:13;6.20;99.90
37702;DHT22;23548;51.196;6.838;2022-12-07T15:53:38;6.20;99.90
37702;DHT22;23548;51.196;6.838;2022-12-07T15:56:07;6.20;99.90
37702;DHT22;23548;51.196;6.838;2022-12-07T15:58:34;6.10;99.90
37702;DHT22;23548;51.196;6.838;2022-12-07T16:00:59;6.10;99.90
37702;DHT22;23548;51.196;6.838;2022-12-07T16:03:27;6.00;99.90
37702;DHT22;23548;51.196;6.838;2022-12-07T16:05:53;5.90;99.90
37702;DHT22;23548;51.196;6.838;2022-12-07T16:08:19;5.90;99.90
37702;DHT22;23548;51.196;6.838;2022-12-07T16:10:45;6.00;99.90
37702;DHT22;23548;51.196;6.838;2022-12-07T16:13:11;5.90;99.90
37702;DHT22;23548;51.196;6.838;2022-12-07T16:15:42;5.90;99.90
37702;DHT22;23548;51.196;6.838;2022-12-07T16:18:08;5.90;99.90
37702;DHT22;23548;51.196;6.838;2022-12-07T16:20:34;5.80;99.90
37702;DHT22;23548;51.196;6.838;2022-12-07T16:22:59;5.80;99.90
37702;DHT22;23548;51.196;6.838;2022-12-07T16:25:25;5.80;99.90
37702;DHT22;23548;51.196;6.838;2022-12-07T16:27:52;5.90;99.90
37702;DHT22;23548;51.196;6.838;2022-12-07T16:30:18;5.90;99.90
37702;DHT22;23548;51.196;6.838;2022-12-07T16:32:43;5.90;99.90
37702;DHT22;23548;51.196;6.838;2022-12-07T16:35:10;5.90;99.90
37702;DHT22;23548;51.196;6.838;2022-12-07T16:37:36;5.80;99.90
37702;DHT22;23548;51.196;6.838;2022-12-07T16:40:02;5.80;99.90
37702;DHT22;23548;51.196;6.838;2022-12-07T16:42:32;5.80;99.90
37702;DHT22;23548;51.196;6.838;2022-12-07T16:44:58;5.90;99.90
37702;DHT22;23548;51.196;6.838;2022-12-07T16:47:24;5.90;99.90
37702;DHT22;23548;51.196;6.838;2022-12-07T16:49:49;6.00;99.90
37702;DHT22;23548;51.196;6.838;2022-12-07T16:52:16;5.90;99.90
37702;DHT22;23548;51.196;6.838;2022-12-07T16:54:42;5.90;99.90
37702;DHT22;23548;51.196;6.838;2022-12-07T16:57:08;5.90;99.90
37702;DHT22;23548;51.196;6.838;2022-12-07T16:59:34;5.90;99.90
37702;DHT22;23548;51.196;6.838;2022-12-07T17:01:59;5.80;99.90
37702;DHT22;23548;51.196;6.838;2022-12-07T17:04:25;5.80;99.90
37702;DHT22;23548;51.196;6.838;2022-12-07T17:06:51;5.80;99.90
37702;DHT22;23548;51.196;6.838;2022-12-07T17:09:16;5.80;99.90
37702;DHT22;23548;51.196;6.838;2022-12-07T17:11:44;5.80;99.90
37702;DHT22;23548;51.196;6.838;2022-12-07T17:14:10;5.80;99.90
37702;DHT22;23548;51.196;6.838;2022-12-07T17:16:54;5.80;99.90
37702;DHT22;23548;51.196;6.838;2022-12-07T17:19:20;5.80;99.90
37702;DHT22;23548;51.196;6.838;2022-12-07T17:21:46;5.80;99.90
37702;DHT22;23548;51.196;6.838;2022-12-07T17:24:14;5.80;99.90
37702;DHT22;23548;51.196;6.838;2022-12-07T17:26:42;5.80;99.90
37702;DHT22;23548;51.196;6.838;2022-12-07T17:29:08;5.90;99.90
37702;DHT22;23548;51.196;6.838;2022-12-07T17:31:36;5.90;99.90
37702;DHT22;23548;51.196;6.838;2022-12-07T17:34:02;5.90;99.90
37702;DHT22;23548;51.196;6.838;2022-12-07T17:36:31;5.90;99.90
37702;DHT22;23548;51.196;6.838;2022-12-07T17:38:57;5.90;99.90
37702;DHT22;23548;51.196;6.838;2022-12-07T17:41:25;5.80;99.90
37702;DHT22;23548;51.196;6.838;2022-12-07T17:44:16;5.80;99.90
37702;DHT22;23548;51.196;6.838;2022-12-07T17:46:44;5.80;99.90
37702;DHT22;23548;51.196;6.838;2022-12-07T17:49:10;5.80;99.90
37702;DHT22;23548;51.196;6.838;2022-12-07T17:51:35;5.70;99.90
37702;DHT22;23548;51.196;6.838;2022-12-07T17:54:19;5.70;99.90
37702;DHT22;23548;51.196;6.838;2022-12-07T17:56:46;5.70;99.90
37702;DHT22;23548;51.196;6.838;2022-12-07T17:59:12;5.70;99.90
37702;DHT22;23548;51.196;6.838;2022-12-07T18:01:38;5.80;99.90
37702;DHT22;23548;51.196;6.838;2022-12-07T18:04:04;5.70;99.90
37702;DHT22;23548;51.196;6.838;2022-12-07T18:06:31;5.70;99.90
37702;DHT22;23548;51.196;6.838;2022-12-07T18:08:57;5.60;99.90
37702;DHT22;23548;51.196;6.838;2022-12-07T18:11:24;5.60;99.90
37702;DHT22;23548;51.196;6.838;2022-12-07T18:13:50;5.70;99.90
37702;DHT22;23548;51.196;6.838;2022-12-07T18:16:21;5.60;99.90
37702;DHT22;23548;51.196;6.838;2022-12-07T18:18:48;5.60;99.90
37702;DHT22;23548;51.196;6.838;2022-12-07T18:21:17;5.60;99.90
37702;DHT22;23548;51.196;6.838;2022-12-07T18:23:45;5.50;99.90
37702;DHT22;23548;51.196;6.838;2022-12-07T18:26:12;5.60;99.90